sensor_id;sensor_type;location;lat;lon;timestamp;P1;durP1;ratioP1;P2;durP2;ratioP2
5297;SDS011;14738;42.668;23.250;2023-10-13T00:01:59;11.30;;;8.30;;
5297;SDS011;14738;42.668;23.250;2023-10-13T00:04:26;8.13;;;7.37;;
5297;SDS011;14738;42.668;23.250;2023-10-13T00:06:52;10.87;;;8.10;;
5297;SDS011;14738;42.668;23.250;2023-10-13T00:09:21;10.70;;;7.90;;
5297;SDS011;14738;42.668;23.250;2023-10-13T00:11:50;9.37;;;7.50;;
5297;SDS011;14738;42.668;23.250;2023-10-13T00:14:17;8.77;;;7.70;;
5297;SDS011;14738;42.668;23.250;2023-10-13T00:16:45;10.50;;;7.80;;
5297;SDS011;14738;42.668;23.250;2023-10-13T00:19:27;10.80;;;8.73;;
5297;SDS011;14738;42.668;23.250;2023-10-13T00:21:53;12.10;;;7.33;;
5297;SDS011;14738;42.668;23.250;2023-10-13T00:24:21;11.03;;;7.50;;
5297;SDS011;14738;42.668;23.250;2023-10-13T00:26:48;8.60;;;7.80;;
5297;SDS011;14738;42.668;23.250;2023-10-13T00:29:14;11.93;;;8.60;;
5297;SDS011;14738;42.668;23.250;2023-10-13T00:31:43;9.10;;;8.00;;
5297;SDS011;14738;42.668;23.250;2023-10-13T00:34:13;9.40;;;8.30;;
5297;SDS011;14738;42.668;23.250;2023-10-13T00:36:53;9.37;;;7.43;;
5297;SDS011;14738;42.668;23.250;2023-10-13T00:39:42;8.83;;;8.03;;
5297;SDS011;14738;42.668;23.250;2023-10-13T00:42:14;9.63;;;8.27;;
5297;SDS011;14738;42.668;23.250;2023-10-13T00:44:45;10.70;;;8.00;;
5297;SDS011;14738;42.668;23.250;2023-10-13T00:47:17;10.90;;;7.80;;
5297;SDS011;14738;42.668;23.250;2023-10-13T00:50:01;8.43;;;7.53;;
5297;SDS011;14738;42.668;23.250;2023-10-13T00:52:28;9.83;;;8.83;;
5297;SDS011;14738;42.668;23.250;2023-10-13T00:54:55;9.80;;;8.80;;
5297;SDS011;14738;42.668;23.250;2023-10-13T00:57:20;13.33;;;7.40;;
5297;SDS011;14738;42.668;23.250;2023-10-13T00:59:53;9.63;;;8.63;;
5297;SDS011;14738;42.668;23.250;2023-10-13T01:02:19;10.83;;;8.03;;
5297;SDS011;14738;42.668;23.250;2023-10-13T01:05:05;8.93;;;7.93;;
5297;SDS011;14738;42.668;23.250;2023-10-13T01:07:36;11.73;;;8.40;;
5297;SDS011;14738;42.668;23.250;2023-10-13T01:10:04;11.00;;;8.20;;
5297;SDS011;14738;42.668;23.250;2023-10-13T01:12:38;11.07;;;8.40;;
5297;SDS011;14738;42.668;23.250;2023-10-13T01:15:03;13.30;;;10.40;;
5297;SDS011;14738;42.668;23.250;2023-10-13T01:17:32;25.00;;;12.20;;
5297;SDS011;14738;42.668;23.250;2023-10-13T01:19:58;16.90;;;12.33;;
5297;SDS011;14738;42.668;23.250;2023-10-13T01:22:24;15.07;;;12.70;;
5297;SDS011;14738;42.668;23.250;2023-10-13T01:24:50;16.63;;;12.30;;
5297;SDS011;14738;42.668;23.250;2023-10-13T01:27:16;18.03;;;13.17;;
5297;SDS011;14738;42.668;23.250;2023-10-13T01:29:45;13.73;;;11.63;;
5297;SDS011;14738;42.668;23.250;2023-10-13T01:32:15;12.17;;;9.70;;
5297;SDS011;14738;42.668;23.250;2023-10-13T01:34:42;12.77;;;9.80;;
5297;SDS011;14738;42.668;23.250;2023-10-13T01:37:12;13.87;;;9.70;;
5297;SDS011;14738;42.668;23.250;2023-10-13T01:39:37;20.47;;;14.77;;
5297;SDS011;14738;42.668;23.250;2023-10-13T01:42:03;15.27;;;11.40;;
5297;SDS011;14738;42.668;23.250;2023-10-13T01:44:28;10.40;;;9.30;;
5297;SDS011;14738;42.668;23.250;2023-10-13T01:46:58;13.20;;;10.40;;
5297;SDS011;14738;42.668;23.250;2023-10-13T01:49:34;12.20;;;9.90;;
5297;SDS011;14738;42.668;23.250;2023-10-13T01:52:18;16.33;;;11.23;;
5297;SDS011;14738;42.668;23.250;2023-10-13T01:54:43;15.03;;;9.63;;
5297;SDS011;14738;42.668;23.250;2023-10-13T01:57:14;12.27;;;10.60;;
5297;SDS011;14738;42.668;23.250;2023-10-13T01:59:48;11.77;;;9.00;;
5297;SDS011;14738;42.668;23.250;2023-10-13T02:02:14;14.03;;;8.67;;
5297;SDS011;14738;42.668;23.250;2023-10-13T02:04:44;12.03;;;9.83;;
5297;SDS011;14738;42.668;23.250;2023-10-13T02:07:21;12.50;;;9.00;;
5297;SDS011;14738;42.668;23.250;2023-10-13T02:09:51;18.60;;;9.23;;
5297;SDS011;14738;42.668;23.250;2023-10-13T02:12:19;13.50;;;9.00;;
5297;SDS011;14738;42.668;23.250;2023-10-13T02:14:50;12.03;;;10.10;;
5297;SDS011;14738;42.668;23.250;2023-10-13T02:17:15;12.53;;;9.93;;
5297;SDS011;14738;42.668;23.250;2023-10-13T02:19:41;12.57;;;9.37;;
5297;SDS011;14738;42.668;23.250;2023-10-13T02:22:10;11.13;;;9.67;;
5297;SDS011;14738;42.668;23.250;2023-10-13T02:24:37;13.40;;;10.20;;
5297;SDS011;14738;42.668;23.250;2023-10-13T02:27:07;12.67;;;10.00;;
5297;SDS011;14738;42.668;23.250;2023-10-13T02:29:38;21.10;;;9.90;;
5297;SDS011;14738;42.668;23.250;2023-10-13T02:32:05;14.53;;;10.17;;
5297;SDS011;14738;42.668;23.250;2023-10-13T02:34:37;11.37;;;9.30;;
5297;SDS011;14738;42.668;23.250;2023-10-13T02:37:08;12.27;;;9.20;;
5297;SDS011;14738;42.668;23.250;2023-10-13T02:39:34;11.43;;;8.60;;
5297;SDS011;14738;42.668;23.250;2023-10-13T02:42:01;9.90;;;8.90;;
5297;SDS011;14738;42.668;23.250;2023-10-13T02:44:26;11.10;;;10.00;;
5297;SDS011;14738;42.668;23.250;2023-10-13T02:46:55;11.53;;;8.13;;
5297;SDS011;14738;42.668;23.250;2023-10-13T02:49:30;11.20;;;9.30;;
5297;SDS011;14738;42.668;23.250;2023-10-13T02:51:59;10.83;;;8.70;;
5297;SDS011;14738;42.668;23.250;2023-10-13T02:54:30;11.60;;;9.40;;
5297;SDS011;14738;42.668;23.250;2023-10-13T02:56:56;11.37;;;9.00;;
5297;SDS011;14738;42.668;23.250;2023-10-13T02:59:22;11.90;;;9.30;;
5297;SDS011;14738;42.668;23.250;2023-10-13T03:02:05;12.57;;;9.40;;
5297;SDS011;14738;42.668;23.250;2023-10-13T03:04:52;14.97;;;9.50;;
5297;SDS011;14738;42.668;23.250;2023-10-13T03:07:29;10.10;;;8.80;;
5297;SDS011;14738;42.668;23.250;2023-10-13T03:09:55;10.20;;;8.03;;
5297;SDS011;14738;42.668;23.250;2023-10-13T03:12:25;15.47;;;8.60;;
5297;SDS011;14738;42.668;23.250;2023-10-13T03:14:51;12.83;;;8.40;;
5297;SDS011;14738;42.668;23.250;2023-10-13T03:17:37;17.07;;;9.20;;
5297;SDS011;14738;42.668;23.250;2023-10-13T03:20:08;17.53;;;10.33;;
5297;SDS011;14738;42.668;23.250;2023-10-13T03:22:44;12.57;;;9.73;;
5297;SDS011;14738;42.668;23.250;2023-10-13T03:25:14;12.67;;;9.43;;
5297;SDS011;14738;42.668;23.250;2023-10-13T03:27:49;13.67;;;10.37;;
5297;SDS011;14738;42.668;23.250;2023-10-13T03:30:18;11.63;;;10.27;;
5297;SDS011;14738;42.668;23.250;2023-10-13T03:32:45;12.63;;;9.93;;
5297;SDS011;14738;42.668;23.250;2023-10-13T03:35:18;11.30;;;9.40;;
5297;SDS011;14738;42.668;23.250;2023-10-13T03:37:54;9.73;;;8.60;;
5297;SDS011;14738;42.668;23.250;2023-10-13T03:40:20;14.50;;;10.00;;
5297;SDS011;14738;42.668;23.250;2023-10-13T03:42:54;13.17;;;9.90;;
5297;SDS011;14738;42.668;23.250;2023-10-13T03:45:36;13.00;;;9.57;;
5297;SDS011;14738;42.668;23.250;2023-10-13T03:48:11;15.80;;;10.90;;
5297;SDS011;14738;42.668;23.250;2023-10-13T03:50:50;15.53;;;11.43;;
5297;SDS011;14738;42.668;23.250;2023-10-13T03:53:31;13.13;;;9.00;;
5297;SDS011;14738;42.668;23.250;2023-10-13T03:56:01;16.73;;;10.70;;
5297;SDS011;14738;42.668;23.250;2023-10-13T03:58:37;12.70;;;10.93;;
5297;SDS011;14738;42.668;23.250;2023-10-13T04:01:04;16.73;;;10.20;;
5297;SDS011;14738;42.668;23.250;2023-10-13T04:03:35;10.10;;;9.07;;
5297;SDS011;14738;42.668;23.250;2023-10-13T04:06:01;16.23;;;10.27;;
5297;SDS011;14738;42.668;23.250;2023-10-13T04:08:33;13.90;;;11.47;;
5297;SDS011;14738;42.668;23.250;2023-10-13T04:11:08;27.20;;;18.50;;
5297;SDS011;14738;42.668;23.250;2023-10-13T04:13:52;17.50;;;14.27;;
5297;SDS011;14738;42.668;23.250;2023-10-13T04:16:33;17.57;;;12.20;;
5297;SDS011;14738;42.668;23.250;2023-10-13T04:18:58;16.47;;;11.80;;
5297;SDS011;14738;42.668;23.250;2023-10-13T04:21:23;23.00;;;11.53;;
5297;SDS011;14738;42.668;23.250;2023-10-13T04:24:07;16.17;;;11.13;;
5297;SDS011;14738;42.668;23.250;2023-10-13T04:26:43;16.80;;;10.30;;
5297;SDS011;14738;42.668;23.250;2023-10-13T04:29:36;18.63;;;10.47;;
5297;SDS011;14738;42.668;23.250;2023-10-13T04:32:21;13.67;;;9.87;;
5297;SDS011;14738;42.668;23.250;2023-10-13T04:35:12;16.13;;;10.77;;
5297;SDS011;14738;42.668;23.250;2023-10-13T04:37:37;18.63;;;9.40;;
5297;SDS011;14738;42.668;23.250;2023-10-13T04:40:19;13.70;;;10.07;;
5297;SDS011;14738;42.668;23.250;2023-10-13T04:42:49;19.80;;;9.70;;
5297;SDS011;14738;42.668;23.250;2023-10-13T04:45:29;20.13;;;10.20;;
5297;SDS011;14738;42.668;23.250;2023-10-13T04:47:58;12.13;;;9.60;;
5297;SDS011;14738;42.668;23.250;2023-10-13T04:50:52;16.67;;;12.50;;
5297;SDS011;14738;42.668;23.250;2023-10-13T04:53:40;15.33;;;11.23;;
5297;SDS011;14738;42.668;23.250;2023-10-13T04:56:24;17.23;;;10.60;;
5297;SDS011;14738;42.668;23.250;2023-10-13T04:59:08;13.70;;;9.83;;
5297;SDS011;14738;42.668;23.250;2023-10-13T05:01:43;19.00;;;11.23;;
5297;SDS011;14738;42.668;23.250;2023-10-13T05:04:34;17.80;;;10.23;;
5297;SDS011;14738;42.668;23.250;2023-10-13T05:07:26;15.03;;;10.73;;
5297;SDS011;14738;42.668;23.250;2023-10-13T05:10:09;17.53;;;9.37;;
5297;SDS011;14738;42.668;23.250;2023-10-13T05:12:53;18.03;;;11.00;;
5297;SDS011;14738;42.668;23.250;2023-10-13T05:15:47;16.37;;;9.00;;
5297;SDS011;14738;42.668;23.250;2023-10-13T05:18:32;13.27;;;9.50;;
5297;SDS011;14738;42.668;23.250;2023-10-13T05:21:16;16.23;;;12.80;;
5297;SDS011;14738;42.668;23.250;2023-10-13T05:24:00;20.17;;;12.10;;
5297;SDS011;14738;42.668;23.250;2023-10-13T05:26:44;18.77;;;11.50;;
5297;SDS011;14738;42.668;23.250;2023-10-13T05:29:28;16.10;;;10.47;;
5297;SDS011;14738;42.668;23.250;2023-10-13T05:32:12;20.70;;;10.43;;
5297;SDS011;14738;42.668;23.250;2023-10-13T05:34:56;16.33;;;10.80;;
5297;SDS011;14738;42.668;23.250;2023-10-13T05:37:40;21.13;;;9.93;;
5297;SDS011;14738;42.668;23.250;2023-10-13T05:40:24;15.57;;;10.00;;
5297;SDS011;14738;42.668;23.250;2023-10-13T05:43:08;18.17;;;9.27;;
5297;SDS011;14738;42.668;23.250;2023-10-13T05:45:52;14.17;;;10.07;;
5297;SDS011;14738;42.668;23.250;2023-10-13T05:48:36;11.87;;;8.90;;
5297;SDS011;14738;42.668;23.250;2023-10-13T05:51:28;18.50;;;9.80;;
5297;SDS011;14738;42.668;23.250;2023-10-13T05:54:17;12.27;;;10.70;;
5297;SDS011;14738;42.668;23.250;2023-10-13T05:56:49;13.93;;;10.80;;
5297;SDS011;14738;42.668;23.250;2023-10-13T05:59:34;13.83;;;11.80;;
5297;SDS011;14738;42.668;23.250;2023-10-13T06:02:22;16.60;;;11.37;;
5297;SDS011;14738;42.668;23.250;2023-10-13T06:05:08;16.00;;;11.33;;
5297;SDS011;14738;42.668;23.250;2023-10-13T06:07:52;20.33;;;11.83;;
5297;SDS011;14738;42.668;23.250;2023-10-13T06:10:48;25.63;;;11.60;;
5297;SDS011;14738;42.668;23.250;2023-10-13T06:13:31;19.63;;;12.30;;
5297;SDS011;14738;42.668;23.250;2023-10-13T06:16:16;19.80;;;12.50;;
5297;SDS011;14738;42.668;23.250;2023-10-13T06:19:00;22.50;;;13.33;;
5297;SDS011;14738;42.668;23.250;2023-10-13T06:21:45;24.83;;;13.43;;
5297;SDS011;14738;42.668;23.250;2023-10-13T06:24:29;23.63;;;13.50;;
5297;SDS011;14738;42.668;23.250;2023-10-13T06:27:14;17.23;;;12.67;;
5297;SDS011;14738;42.668;23.250;2023-10-13T06:29:59;19.00;;;13.40;;
5297;SDS011;14738;42.668;23.250;2023-10-13T06:32:25;16.90;;;13.40;;
5297;SDS011;14738;42.668;23.250;2023-10-13T06:34:55;42.20;;;15.20;;
5297;SDS011;14738;42.668;23.250;2023-10-13T06:37:29;24.67;;;13.83;;
5297;SDS011;14738;42.668;23.250;2023-10-13T06:40:02;23.70;;;14.63;;
5297;SDS011;14738;42.668;23.250;2023-10-13T06:42:47;20.00;;;13.70;;
5297;SDS011;14738;42.668;23.250;2023-10-13T06:45:13;38.07;;;14.07;;
5297;SDS011;14738;42.668;23.250;2023-10-13T06:47:41;21.40;;;14.90;;
5297;SDS011;14738;42.668;23.250;2023-10-13T06:52:41;23.40;;;14.77;;
5297;SDS011;14738;42.668;23.250;2023-10-13T06:55:08;27.87;;;14.23;;
5297;SDS011;14738;42.668;23.250;2023-10-13T06:57:49;26.87;;;15.70;;
5297;SDS011;14738;42.668;23.250;2023-10-13T07:00:16;26.67;;;14.83;;
5297;SDS011;14738;42.668;23.250;2023-10-13T07:02:53;25.10;;;15.27;;
5297;SDS011;14738;42.668;23.250;2023-10-13T07:05:18;33.57;;;17.70;;
5297;SDS011;14738;42.668;23.250;2023-10-13T07:07:44;22.10;;;17.93;;
5297;SDS011;14738;42.668;23.250;2023-10-13T07:10:10;29.03;;;15.97;;
5297;SDS011;14738;42.668;23.250;2023-10-13T07:12:37;27.00;;;16.53;;
5297;SDS011;14738;42.668;23.250;2023-10-13T07:15:08;27.07;;;17.10;;
5297;SDS011;14738;42.668;23.250;2023-10-13T07:17:47;36.53;;;18.10;;
5297;SDS011;14738;42.668;23.250;2023-10-13T07:20:19;30.50;;;17.83;;
5297;SDS011;14738;42.668;23.250;2023-10-13T07:22:54;29.60;;;18.23;;
5297;SDS011;14738;42.668;23.250;2023-10-13T07:25:31;25.00;;;17.40;;
5297;SDS011;14738;42.668;23.250;2023-10-13T07:28:03;37.70;;;19.57;;
5297;SDS011;14738;42.668;23.250;2023-10-13T07:30:33;29.93;;;18.13;;
5297;SDS011;14738;42.668;23.250;2023-10-13T07:33:19;29.97;;;18.80;;
5297;SDS011;14738;42.668;23.250;2023-10-13T07:35:45;24.33;;;17.70;;
5297;SDS011;14738;42.668;23.250;2023-10-13T07:38:16;26.63;;;17.60;;
5297;SDS011;14738;42.668;23.250;2023-10-13T07:40:46;31.90;;;18.80;;
5297;SDS011;14738;42.668;23.250;2023-10-13T07:43:17;27.07;;;17.37;;
5297;SDS011;14738;42.668;23.250;2023-10-13T07:45:49;31.60;;;18.27;;
5297;SDS011;14738;42.668;23.250;2023-10-13T07:48:23;20.00;;;14.80;;
5297;SDS011;14738;42.668;23.250;2023-10-13T07:53:43;21.00;;;15.90;;
5297;SDS011;14738;42.668;23.250;2023-10-13T07:56:10;24.37;;;17.27;;
5297;SDS011;14738;42.668;23.250;2023-10-13T07:58:38;25.07;;;17.27;;
5297;SDS011;14738;42.668;23.250;2023-10-13T08:01:25;32.33;;;18.97;;
5297;SDS011;14738;42.668;23.250;2023-10-13T08:03:51;34.03;;;18.10;;
5297;SDS011;14738;42.668;23.250;2023-10-13T08:06:29;32.10;;;17.57;;
5297;SDS011;14738;42.668;23.250;2023-10-13T08:08:55;22.57;;;17.10;;
5297;SDS011;14738;42.668;23.250;2023-10-13T08:11:32;25.20;;;16.57;;
5297;SDS011;14738;42.668;23.250;2023-10-13T08:13:59;24.53;;;16.60;;
5297;SDS011;14738;42.668;23.250;2023-10-13T08:16:36;25.70;;;17.80;;
5297;SDS011;14738;42.668;23.250;2023-10-13T08:19:18;20.70;;;17.47;;
5297;SDS011;14738;42.668;23.250;2023-10-13T08:21:45;40.80;;;19.53;;
5297;SDS011;14738;42.668;23.250;2023-10-13T08:24:16;25.70;;;16.53;;
5297;SDS011;14738;42.668;23.250;2023-10-13T08:26:51;25.53;;;16.80;;
5297;SDS011;14738;42.668;23.250;2023-10-13T08:29:23;31.10;;;16.80;;
5297;SDS011;14738;42.668;23.250;2023-10-13T08:31:55;27.60;;;17.60;;
5297;SDS011;14738;42.668;23.250;2023-10-13T08:34:35;23.17;;;16.17;;
5297;SDS011;14738;42.668;23.250;2023-10-13T08:37:27;31.77;;;16.97;;
5297;SDS011;14738;42.668;23.250;2023-10-13T08:39:58;27.20;;;16.50;;
5297;SDS011;14738;42.668;23.250;2023-10-13T08:42:34;30.27;;;17.00;;
5297;SDS011;14738;42.668;23.250;2023-10-13T08:47:55;22.97;;;18.07;;
5297;SDS011;14738;42.668;23.250;2023-10-13T08:50:45;32.90;;;18.40;;
5297;SDS011;14738;42.668;23.250;2023-10-13T08:53:15;29.47;;;17.30;;
5297;SDS011;14738;42.668;23.250;2023-10-13T08:56:04;23.60;;;17.40;;
5297;SDS011;14738;42.668;23.250;2023-10-13T08:58:39;26.00;;;15.33;;
5297;SDS011;14738;42.668;23.250;2023-10-13T09:01:18;22.87;;;14.70;;
5297;SDS011;14738;42.668;23.250;2023-10-13T09:03:56;24.10;;;15.30;;
5297;SDS011;14738;42.668;23.250;2023-10-13T09:06:42;31.53;;;14.90;;
5297;SDS011;14738;42.668;23.250;2023-10-13T09:12:18;27.63;;;15.07;;
5297;SDS011;14738;42.668;23.250;2023-10-13T09:15:01;30.70;;;14.20;;
5297;SDS011;14738;42.668;23.250;2023-10-13T09:17:48;23.10;;;12.47;;
5297;SDS011;14738;42.668;23.250;2023-10-13T09:20:38;26.33;;;13.00;;
5297;SDS011;14738;42.668;23.250;2023-10-13T09:23:24;25.70;;;10.87;;
5297;SDS011;14738;42.668;23.250;2023-10-13T09:25:50;18.30;;;10.70;;
5297;SDS011;14738;42.668;23.250;2023-10-13T09:28:23;18.73;;;11.40;;
5297;SDS011;14738;42.668;23.250;2023-10-13T09:30:53;16.10;;;9.37;;
5297;SDS011;14738;42.668;23.250;2023-10-13T09:33:25;16.40;;;10.50;;
5297;SDS011;14738;42.668;23.250;2023-10-13T09:36:00;11.93;;;7.80;;
5297;SDS011;14738;42.668;23.250;2023-10-13T09:38:30;11.23;;;7.90;;
5297;SDS011;14738;42.668;23.250;2023-10-13T09:40:57;9.57;;;7.50;;
5297;SDS011;14738;42.668;23.250;2023-10-13T09:43:27;13.47;;;7.43;;
5297;SDS011;14738;42.668;23.250;2023-10-13T09:46:00;10.50;;;8.57;;
5297;SDS011;14738;42.668;23.250;2023-10-13T09:48:42;15.70;;;8.23;;
5297;SDS011;14738;42.668;23.250;2023-10-13T09:51:14;11.50;;;7.30;;
5297;SDS011;14738;42.668;23.250;2023-10-13T09:56:37;11.67;;;6.50;;
5297;SDS011;14738;42.668;23.250;2023-10-13T09:59:18;12.17;;;7.43;;
5297;SDS011;14738;42.668;23.250;2023-10-13T10:01:53;10.03;;;8.20;;
5297;SDS011;14738;42.668;23.250;2023-10-13T10:04:51;8.77;;;7.50;;
5297;SDS011;14738;42.668;23.250;2023-10-13T10:07:27;8.23;;;6.60;;
5297;SDS011;14738;42.668;23.250;2023-10-13T10:09:57;9.67;;;7.70;;
5297;SDS011;14738;42.668;23.250;2023-10-13T10:17:45;10.37;;;7.53;;
5297;SDS011;14738;42.668;23.250;2023-10-13T10:20:13;14.57;;;7.73;;
5297;SDS011;14738;42.668;23.250;2023-10-13T10:22:55;9.57;;;7.00;;
5297;SDS011;14738;42.668;23.250;2023-10-13T10:25:28;7.90;;;7.10;;
5297;SDS011;14738;42.668;23.250;2023-10-13T10:28:04;13.13;;;7.50;;
5297;SDS011;14738;42.668;23.250;2023-10-13T10:30:36;13.83;;;6.43;;
5297;SDS011;14738;42.668;23.250;2023-10-13T10:33:03;6.97;;;5.77;;
5297;SDS011;14738;42.668;23.250;2023-10-13T10:35:46;20.53;;;7.00;;
5297;SDS011;14738;42.668;23.250;2023-10-13T10:38:16;6.27;;;5.20;;
5297;SDS011;14738;42.668;23.250;2023-10-13T10:40:58;11.43;;;6.60;;
5297;SDS011;14738;42.668;23.250;2023-10-13T10:46:10;4.83;;;3.60;;
5297;SDS011;14738;42.668;23.250;2023-10-13T10:48:37;6.73;;;3.40;;
5297;SDS011;14738;42.668;23.250;2023-10-13T10:51:08;8.50;;;3.20;;
5297;SDS011;14738;42.668;23.250;2023-10-13T10:53:39;17.33;;;5.43;;
5297;SDS011;14738;42.668;23.250;2023-10-13T10:56:10;7.17;;;4.40;;
5297;SDS011;14738;42.668;23.250;2023-10-13T10:58:49;7.27;;;4.80;;
5297;SDS011;14738;42.668;23.250;2023-10-13T11:01:23;4.60;;;3.73;;
5297;SDS011;14738;42.668;23.250;2023-10-13T11:03:56;11.23;;;4.33;;
5297;SDS011;14738;42.668;23.250;2023-10-13T11:06:23;8.23;;;4.53;;
5297;SDS011;14738;42.668;23.250;2023-10-13T11:09:00;4.73;;;4.20;;
5297;SDS011;14738;42.668;23.250;2023-10-13T11:11:29;14.47;;;4.10;;
5297;SDS011;14738;42.668;23.250;2023-10-13T11:14:01;6.50;;;4.70;;
5297;SDS011;14738;42.668;23.250;2023-10-13T11:16:45;9.30;;;5.03;;
5297;SDS011;14738;42.668;23.250;2023-10-13T11:19:15;7.80;;;4.17;;
5297;SDS011;14738;42.668;23.250;2023-10-13T11:21:51;6.60;;;3.87;;
5297;SDS011;14738;42.668;23.250;2023-10-13T11:24:18;8.97;;;3.70;;
5297;SDS011;14738;42.668;23.250;2023-10-13T11:26:52;6.13;;;3.73;;
5297;SDS011;14738;42.668;23.250;2023-10-13T11:29:19;5.70;;;3.80;;
5297;SDS011;14738;42.668;23.250;2023-10-13T11:31:56;5.40;;;3.60;;
5297;SDS011;14738;42.668;23.250;2023-10-13T11:34:25;6.90;;;3.43;;
5297;SDS011;14738;42.668;23.250;2023-10-13T11:36:55;5.90;;;3.00;;
5297;SDS011;14738;42.668;23.250;2023-10-13T11:39:20;2.97;;;2.73;;
5297;SDS011;14738;42.668;23.250;2023-10-13T11:41:55;2.90;;;2.67;;
5297;SDS011;14738;42.668;23.250;2023-10-13T11:44:21;5.17;;;3.40;;
5297;SDS011;14738;42.668;23.250;2023-10-13T11:46:47;4.13;;;3.23;;
5297;SDS011;14738;42.668;23.250;2023-10-13T11:49:12;6.10;;;3.57;;
5297;SDS011;14738;42.668;23.250;2023-10-13T11:51:43;5.03;;;2.70;;
5297;SDS011;14738;42.668;23.250;2023-10-13T11:54:13;5.40;;;3.63;;
5297;SDS011;14738;42.668;23.250;2023-10-13T11:56:43;4.20;;;2.90;;
5297;SDS011;14738;42.668;23.250;2023-10-13T11:59:09;3.97;;;3.57;;
5297;SDS011;14738;42.668;23.250;2023-10-13T12:01:49;5.40;;;3.13;;
5297;SDS011;14738;42.668;23.250;2023-10-13T12:04:34;3.60;;;2.73;;
5297;SDS011;14738;42.668;23.250;2023-10-13T12:07:08;3.50;;;3.20;;
5297;SDS011;14738;42.668;23.250;2023-10-13T12:09:42;5.70;;;3.40;;
5297;SDS011;14738;42.668;23.250;2023-10-13T12:12:23;4.23;;;2.73;;
5297;SDS011;14738;42.668;23.250;2023-10-13T12:14:51;3.00;;;2.80;;
5297;SDS011;14738;42.668;23.250;2023-10-13T12:17:20;6.40;;;3.03;;
5297;SDS011;14738;42.668;23.250;2023-10-13T12:20:03;10.13;;;3.33;;
5297;SDS011;14738;42.668;23.250;2023-10-13T12:22:34;6.40;;;2.67;;
5297;SDS011;14738;42.668;23.250;2023-10-13T12:25:16;9.60;;;3.37;;
5297;SDS011;14738;42.668;23.250;2023-10-13T12:27:59;6.07;;;2.70;;
5297;SDS011;14738;42.668;23.250;2023-10-13T12:30:46;5.73;;;3.57;;
5297;SDS011;14738;42.668;23.250;2023-10-13T12:33:19;5.00;;;2.80;;
5297;SDS011;14738;42.668;23.250;2023-10-13T12:35:58;6.33;;;3.10;;
5297;SDS011;14738;42.668;23.250;2023-10-13T12:38:47;3.63;;;3.00;;
5297;SDS011;14738;42.668;23.250;2023-10-13T12:41:13;6.70;;;3.27;;
5297;SDS011;14738;42.668;23.250;2023-10-13T12:43:57;6.20;;;3.97;;
5297;SDS011;14738;42.668;23.250;2023-10-13T12:46:41;3.57;;;2.80;;
5297;SDS011;14738;42.668;23.250;2023-10-13T12:49:25;6.17;;;4.00;;
5297;SDS011;14738;42.668;23.250;2023-10-13T12:52:14;3.87;;;3.13;;
5297;SDS011;14738;42.668;23.250;2023-10-13T12:54:51;4.77;;;3.17;;
5297;SDS011;14738;42.668;23.250;2023-10-13T12:57:19;4.27;;;3.10;;
5297;SDS011;14738;42.668;23.250;2023-10-13T12:59:48;9.00;;;2.83;;
5297;SDS011;14738;42.668;23.250;2023-10-13T13:02:13;3.20;;;2.60;;
5297;SDS011;14738;42.668;23.250;2023-10-13T13:04:43;3.77;;;3.10;;
5297;SDS011;14738;42.668;23.250;2023-10-13T13:07:16;5.70;;;3.30;;
5297;SDS011;14738;42.668;23.250;2023-10-13T13:09:41;7.63;;;2.70;;
5297;SDS011;14738;42.668;23.250;2023-10-13T13:12:08;7.80;;;3.50;;
5297;SDS011;14738;42.668;23.250;2023-10-13T13:14:37;5.07;;;3.70;;
5297;SDS011;14738;42.668;23.250;2023-10-13T13:17:05;6.73;;;3.20;;
5297;SDS011;14738;42.668;23.250;2023-10-13T13:19:34;3.40;;;3.10;;
5297;SDS011;14738;42.668;23.250;2023-10-13T13:22:07;5.40;;;3.30;;
5297;SDS011;14738;42.668;23.250;2023-10-13T13:24:37;4.23;;;3.50;;
5297;SDS011;14738;42.668;23.250;2023-10-13T13:27:12;3.20;;;2.90;;
5297;SDS011;14738;42.668;23.250;2023-10-13T13:29:49;8.13;;;2.90;;
5297;SDS011;14738;42.668;23.250;2023-10-13T13:32:14;4.33;;;2.90;;
5297;SDS011;14738;42.668;23.250;2023-10-13T13:34:44;4.50;;;3.00;;
5297;SDS011;14738;42.668;23.250;2023-10-13T13:37:19;6.00;;;2.60;;
5297;SDS011;14738;42.668;23.250;2023-10-13T13:39:45;3.27;;;2.90;;
5297;SDS011;14738;42.668;23.250;2023-10-13T13:42:10;6.23;;;3.30;;
5297;SDS011;14738;42.668;23.250;2023-10-13T13:44:42;5.50;;;3.07;;
5297;SDS011;14738;42.668;23.250;2023-10-13T13:47:11;4.00;;;3.20;;
5297;SDS011;14738;42.668;23.250;2023-10-13T13:49:38;4.87;;;3.27;;
5297;SDS011;14738;42.668;23.250;2023-10-13T13:52:11;5.70;;;2.93;;
5297;SDS011;14738;42.668;23.250;2023-10-13T13:54:46;3.10;;;2.77;;
5297;SDS011;14738;42.668;23.250;2023-10-13T13:57:11;8.40;;;3.30;;
5297;SDS011;14738;42.668;23.250;2023-10-13T13:59:38;7.33;;;3.30;;
5297;SDS011;14738;42.668;23.250;2023-10-13T14:02:04;4.03;;;3.13;;
5297;SDS011;14738;42.668;23.250;2023-10-13T14:04:37;12.60;;;3.50;;
5297;SDS011;14738;42.668;23.250;2023-10-13T14:07:02;4.90;;;2.93;;
5297;SDS011;14738;42.668;23.250;2023-10-13T14:09:31;3.50;;;2.93;;
5297;SDS011;14738;42.668;23.250;2023-10-13T14:12:05;3.03;;;2.73;;
5297;SDS011;14738;42.668;23.250;2023-10-13T14:14:49;7.80;;;3.43;;
5297;SDS011;14738;42.668;23.250;2023-10-13T14:17:21;6.77;;;4.10;;
5297;SDS011;14738;42.668;23.250;2023-10-13T14:19:53;9.03;;;3.60;;
5297;SDS011;14738;42.668;23.250;2023-10-13T14:22:20;3.70;;;3.40;;
5297;SDS011;14738;42.668;23.250;2023-10-13T14:24:49;8.30;;;3.67;;
5297;SDS011;14738;42.668;23.250;2023-10-13T14:27:19;10.20;;;3.10;;
5297;SDS011;14738;42.668;23.250;2023-10-13T14:29:47;6.73;;;3.40;;
5297;SDS011;14738;42.668;23.250;2023-10-13T14:32:17;4.10;;;3.03;;
5297;SDS011;14738;42.668;23.250;2023-10-13T14:34:45;6.30;;;3.67;;
5297;SDS011;14738;42.668;23.250;2023-10-13T14:37:13;4.53;;;3.50;;
5297;SDS011;14738;42.668;23.250;2023-10-13T14:39:42;4.77;;;3.27;;
5297;SDS011;14738;42.668;23.250;2023-10-13T14:42:07;11.77;;;3.30;;
5297;SDS011;14738;42.668;23.250;2023-10-13T14:44:33;7.37;;;3.33;;
5297;SDS011;14738;42.668;23.250;2023-10-13T14:47:00;3.97;;;2.97;;
5297;SDS011;14738;42.668;23.250;2023-10-13T14:49:26;6.83;;;3.13;;
5297;SDS011;14738;42.668;23.250;2023-10-13T14:51:52;5.43;;;3.30;;
5297;SDS011;14738;42.668;23.250;2023-10-13T14:54:20;6.70;;;4.00;;
5297;SDS011;14738;42.668;23.250;2023-10-13T14:56:54;5.60;;;3.50;;
5297;SDS011;14738;42.668;23.250;2023-10-13T14:59:21;3.70;;;3.40;;
5297;SDS011;14738;42.668;23.250;2023-10-13T15:01:47;3.63;;;3.07;;
5297;SDS011;14738;42.668;23.250;2023-10-13T15:04:14;4.63;;;3.70;;
5297;SDS011;14738;42.668;23.250;2023-10-13T15:06:39;7.37;;;3.90;;
5297;SDS011;14738;42.668;23.250;2023-10-13T15:09:05;4.90;;;3.50;;
5297;SDS011;14738;42.668;23.250;2023-10-13T15:11:36;7.23;;;3.60;;
5297;SDS011;14738;42.668;23.250;2023-10-13T15:14:02;4.60;;;2.80;;
5297;SDS011;14738;42.668;23.250;2023-10-13T15:16:28;7.60;;;3.40;;
5297;SDS011;14738;42.668;23.250;2023-10-13T15:18:54;9.70;;;4.00;;
5297;SDS011;14738;42.668;23.250;2023-10-13T15:21:23;12.23;;;3.20;;
5297;SDS011;14738;42.668;23.250;2023-10-13T15:23:51;9.43;;;3.50;;
5297;SDS011;14738;42.668;23.250;2023-10-13T15:26:17;3.97;;;3.20;;
5297;SDS011;14738;42.668;23.250;2023-10-13T15:28:46;11.60;;;3.40;;
5297;SDS011;14738;42.668;23.250;2023-10-13T15:31:17;11.03;;;3.83;;
5297;SDS011;14738;42.668;23.250;2023-10-13T15:33:52;9.20;;;3.80;;